createdAt,value
2016-07-12T00:26:27.994Z,54.50
2016-07-12T00:26:43.845Z,54.70
2016-07-12T00:27:33.026Z,55.00
2016-07-12T00:28:32.430Z,54.90
2016-07-12T00:29:32.676Z,55.00
2016-07-12T00:30:21.028Z,54.90
2016-07-12T00:31:29.869Z,55.00
2016-07-12T00:32:26.366Z,54.90
2016-07-12T00:33:20.041Z,55.30
2016-07-12T00:34:19.008Z,55.10
2016-07-12T00:35:29.280Z,55.00
2016-07-12T00:36:23.860Z,55.10
2016-07-12T00:37:28.980Z,55.00
2016-07-12T00:38:30.038Z,55.10
2016-07-12T00:39:23.413Z,55.10
2016-07-12T00:40:29.060Z,55.00
2016-07-12T00:41:37.309Z,55.10
2016-07-12T00:42:28.875Z,54.90
2016-07-12T00:43:27.731Z,54.90
2016-07-12T00:44:25.307Z,54.90
2016-07-12T00:45:26.237Z,55.00
2016-07-12T00:46:31.040Z,54.90
2016-07-12T00:47:25.120Z,54.90
2016-07-12T00:48:37.515Z,55.00
2016-07-12T00:49:32.325Z,54.90
2016-07-12T00:50:27.930Z,54.70
2016-07-12T00:51:37.215Z,54.70
2016-07-12T00:52:28.232Z,54.70
2016-07-12T00:53:17.288Z,54.80
2016-07-12T00:54:17.129Z,54.70
2016-07-12T00:55:15.063Z,54.80
2016-07-12T00:56:17.283Z,54.70
2016-07-12T00:57:15.480Z,54.80
2016-07-12T00:58:17.987Z,54.70
2016-07-12T00:59:19.039Z,54.80
2016-07-12T01:00:24.592Z,54.70
2016-07-12T01:01:19.432Z,54.70
2016-07-12T01:02:28.899Z,54.80
2016-07-12T01:03:23.565Z,54.80
2016-07-12T01:04:22.658Z,is
2016-07-12T01:05:28.900Z,54.70
2016-07-12T01:06:28.571Z,54.70
2016-07-12T01:07:23.580Z,54.80
2016-07-12T01:08:33.609Z,54.90
2016-07-12T01:09:29.497Z,54.80
2016-07-12T01:10:28.603Z,54.90
2016-07-12T01:11:36.644Z,55.00
2016-07-12T01:12:28.664Z,54.70
2016-07-12T01:13:10.922Z,54.90
2016-07-12T01:14:25.955Z,55.20
2016-07-12T01:15:23.546Z,55.20
2016-07-12T01:16:33.743Z,55.10
2016-07-12T01:17:30.377Z,55.20
2016-07-12T01:18:21.592Z,55.20
2016-07-12T01:19:26.815Z,55.40
2016-07-12T01:20:30.642Z,55.40
2016-07-12T01:21:36.764Z,55.50
2016-07-12T01:22:25.935Z,55.40
2016-07-12T01:23:27.102Z,55.50
2016-07-12T01:24:29.675Z,55.50
2016-07-12T01:25:27.777Z,55.20
2016-07-12T01:26:29.158Z,55.40
2016-07-12T01:27:23.049Z,55.50
2016-07-12T01:28:23.129Z,55.50
2016-07-12T01:29:43.011Z,55.40
2016-07-12T01:30:29.030Z,55.60
2016-07-12T01:31:23.244Z,55.70
2016-07-12T01:32:25.782Z,55.40
2016-07-12T01:33:25.692Z,55.60
2016-07-12T01:34:36.915Z,55.40
2016-07-12T01:35:23.926Z,55.70
2016-07-12T01:36:27.006Z,55.70
2016-07-12T01:37:26.011Z,55.70
2016-07-12T01:38:15.050Z,55.70
2016-07-12T01:39:28.118Z,55.70
2016-07-12T01:40:22.959Z,55.90
2016-07-12T01:41:23.838Z,55.90
2016-07-12T01:42:31.516Z,55.80
2016-07-12T01:43:36.713Z,55.70
2016-07-12T01:44:28.814Z,55.70
2016-07-12T01:45:29.361Z,55.70
2016-07-12T01:46:33.732Z,55.70
2016-07-12T01:47:25.234Z,55.70
2016-07-12T01:48:27.265Z,55.70
2016-07-12T01:49:27.560Z,55.80
2016-07-12T01:50:24.439Z,55.70
2016-07-12T01:51:28.498Z,55.70
2016-07-12T01:52:34.131Z,55.70
2016-07-12T01:53:31.650Z,55.70
2016-07-12T01:54:25.855Z,55.60
2016-07-12T01:55:32.744Z,55.40
2016-07-12T01:56:23.555Z,55.70
2016-07-12T01:57:28.398Z,55.70
2016-07-12T01:58:17.664Z,55.70
2016-07-12T01:59:21.601Z,55.70
2016-07-12T02:00:28.977Z,55.80
2016-07-12T02:01:30.001Z,55.60
2016-07-12T02:02:30.635Z,55.80
2016-07-12T02:03:19.604Z,55.50
2016-07-12T02:04:17.794Z,is
2016-07-12T02:05:18.663Z,55.40
2016-07-12T02:06:13.907Z,55.40
2016-07-12T02:07:12.281Z,55.50
2016-07-12T02:08:17.838Z,55.30
2016-07-12T02:09:11.468Z,55.40
2016-07-12T02:10:28.056Z,55.40
2016-07-12T02:11:28.101Z,55.70
2016-07-12T02:12:22.751Z,55.60
2016-07-12T02:13:27.766Z,55.60
2016-07-12T02:14:29.579Z,55.70
2016-07-12T02:15:36.206Z,55.70
2016-07-12T02:16:23.678Z,55.70
2016-07-12T02:17:27.299Z,is
2016-07-12T02:18:23.280Z,55.70
2016-07-12T02:19:28.729Z,55.80
2016-07-12T02:20:23.986Z,55.70
2016-07-12T02:21:25.424Z,55.80
2016-07-12T02:22:29.172Z,55.90
2016-07-12T02:23:22.844Z,56.10
2016-07-12T02:24:28.425Z,56.00
2016-07-12T02:25:28.314Z,56.10
2016-07-12T02:26:31.357Z,56.00
2016-07-12T02:27:36.518Z,55.90
2016-07-12T02:28:18.091Z,56.00
2016-07-12T02:29:26.621Z,56.00
2016-07-12T02:30:24.222Z,56.10
2016-07-12T02:31:33.328Z,55.90
2016-07-12T02:32:28.580Z,56.00
2016-07-12T02:33:23.358Z,56.00
2016-07-12T02:34:30.114Z,56.10
2016-07-12T02:35:43.723Z,56.00
2016-07-12T02:36:25.831Z,56.10
2016-07-12T02:37:31.816Z,56.00
2016-07-12T02:38:25.407Z,56.20
2016-07-12T02:39:26.820Z,56.10
2016-07-12T02:40:23.203Z,55.90
2016-07-12T02:41:28.822Z,55.80
2016-07-12T02:42:28.263Z,55.80
2016-07-12T02:43:31.887Z,55.90
2016-07-12T02:44:26.172Z,55.80
2016-07-12T02:45:30.018Z,55.90
2016-07-12T02:46:30.210Z,55.90
2016-07-12T02:47:30.057Z,55.80
2016-07-12T02:48:26.911Z,56.00
2016-07-12T02:49:20.278Z,56.00
2016-07-12T02:50:24.139Z,55.80
2016-07-12T02:51:37.345Z,55.90
2016-07-12T02:52:34.263Z,56.10
2016-07-12T02:53:17.567Z,55.30
2016-07-12T02:54:28.655Z,56.00
2016-07-12T02:55:32.002Z,56.10
2016-07-12T02:56:27.571Z,55.90
2016-07-12T02:57:32.653Z,56.10
2016-07-12T02:58:19.274Z,56.10
2016-07-12T02:59:25.723Z,56.10
2016-07-12T03:00:28.598Z,56.00
2016-07-12T03:01:37.211Z,56.10
2016-07-12T03:02:29.585Z,56.00
2016-07-12T03:03:20.673Z,55.90
2016-07-12T03:04:16.774Z,56.10
2016-07-12T03:05:34.115Z,56.10
2016-07-12T03:06:31.841Z,55.80
2016-07-12T03:07:43.112Z,56.10
2016-07-12T03:08:16.480Z,56.00
2016-07-12T03:09:29.022Z,56.10
2016-07-12T03:10:31.373Z,56.10
2016-07-12T03:11:14.439Z,55.80
2016-07-12T03:12:19.648Z,56.00
2016-07-12T03:13:17.604Z,56.10
2016-07-12T03:14:19.278Z,55.80
2016-07-12T03:15:12.855Z,56.10
2016-07-12T03:16:29.098Z,56.20
2016-07-12T03:17:29.230Z,56.00
2016-07-12T03:18:23.389Z,56.20
2016-07-12T03:19:28.187Z,56.20
2016-07-12T03:20:28.091Z,56.20
2016-07-12T03:21:31.469Z,56.20
2016-07-12T03:22:36.802Z,56.20
2016-07-12T03:23:28.427Z,56.20
2016-07-12T03:24:22.694Z,56.20
2016-07-12T03:25:25.937Z,56.40
2016-07-12T03:26:29.486Z,56.40
2016-07-12T03:27:32.410Z,56.30
2016-07-12T03:28:21.960Z,56.50
2016-07-12T03:29:22.955Z,56.40
2016-07-12T03:30:23.748Z,56.50
2016-07-12T03:31:28.796Z,56.50
2016-07-12T03:32:36.341Z,56.40
2016-07-12T03:33:21.288Z,56.40
2016-07-12T03:34:20.598Z,56.40
2016-07-12T03:35:32.788Z,56.30
2016-07-12T03:36:29.462Z,56.50
2016-07-12T03:37:38.358Z,56.40
2016-07-12T03:38:26.095Z,56.60
2016-07-12T03:39:37.809Z,56.50
2016-07-12T03:40:27.363Z,56.50
2016-07-12T03:41:30.502Z,56.40
2016-07-12T03:42:31.707Z,56.30
2016-07-12T03:43:35.882Z,56.30
2016-07-12T03:44:24.765Z,56.30
2016-07-12T03:45:27.927Z,56.00
2016-07-12T03:46:29.403Z,56.40
2016-07-12T03:47:43.223Z,56.30
2016-07-12T03:48:22.838Z,56.20
2016-07-12T03:49:36.085Z,56.10
2016-07-12T03:50:23.836Z,56.20
2016-07-12T03:51:34.111Z,56.20
2016-07-12T03:52:25.726Z,56.20
2016-07-12T03:53:27.094Z,56.20
2016-07-12T03:54:28.578Z,56.20
2016-07-12T03:55:27.059Z,56.30
2016-07-12T03:56:28.515Z,56.20
2016-07-12T03:57:23.732Z,56.10
2016-07-12T03:58:22.608Z,56.10
2016-07-12T03:59:18.096Z,56.20
2016-07-12T04:00:32.233Z,56.20
2016-07-12T04:01:30.272Z,56.00
2016-07-12T04:02:25.627Z,56.10
2016-07-12T04:03:23.989Z,56.10
2016-07-12T04:04:32.599Z,56.10
2016-07-12T04:05:23.424Z,56.20
2016-07-12T04:06:31.909Z,56.20
2016-07-12T04:07:32.838Z,56.20
2016-07-12T04:08:28.558Z,56.10
2016-07-12T04:09:26.822Z,56.10
2016-07-12T04:10:29.227Z,56.20
2016-07-12T04:11:23.348Z,56.20
2016-07-12T04:12:27.956Z,56.10
2016-07-12T04:13:28.839Z,56.10
2016-07-12T04:14:26.073Z,56.00
2016-07-12T04:15:21.535Z,56.00
2016-07-12T04:16:15.648Z,56.10
2016-07-12T04:17:22.558Z,56.10
2016-07-12T04:18:18.138Z,56.00
2016-07-12T04:19:15.056Z,56.00
2016-07-12T04:20:22.914Z,56.20
2016-07-12T04:21:28.771Z,56.10
2016-07-12T04:22:35.135Z,56.10
2016-07-12T04:23:24.839Z,56.20
2016-07-12T04:24:24.171Z,56.30
2016-07-12T04:25:34.770Z,56.30
2016-07-12T04:26:32.624Z,56.20
2016-07-12T04:27:37.802Z,56.30
2016-07-12T04:28:32.534Z,56.30
2016-07-12T04:29:34.830Z,56.20
2016-07-12T04:30:38.498Z,56.20
2016-07-12T04:31:31.502Z,56.10
2016-07-12T04:32:33.641Z,56.10
2016-07-12T04:33:32.776Z,56.10
2016-07-12T04:34:24.640Z,56.10
2016-07-12T04:35:25.150Z,56.20
2016-07-12T04:36:27.581Z,56.10
2016-07-12T04:37:36.440Z,55.80
2016-07-12T04:38:31.636Z,56.10
2016-07-12T04:39:26.008Z,56.10
2016-07-12T04:40:29.392Z,56.00
2016-07-12T04:41:38.997Z,56.10
2016-07-12T04:42:28.712Z,56.20
2016-07-12T04:43:23.001Z,56.30
2016-07-12T04:44:32.759Z,56.20
2016-07-12T04:45:37.584Z,56.30
2016-07-12T04:46:31.489Z,56.20
2016-07-12T04:47:31.527Z,56.50
2016-07-12T04:48:35.920Z,56.10
2016-07-12T04:49:28.273Z,56.30
2016-07-12T04:50:37.811Z,56.20
2016-07-12T04:51:28.774Z,56.30
2016-07-12T04:52:18.069Z,56.30
2016-07-12T04:53:11.362Z,56.40
2016-07-12T04:54:27.478Z,56.30
2016-07-12T04:55:33.136Z,56.10
2016-07-12T04:56:24.857Z,56.30
2016-07-12T04:57:30.645Z,56.20
2016-07-12T04:58:26.177Z,56.50
2016-07-12T04:59:25.811Z,56.30
2016-07-12T05:00:23.192Z,56.20
2016-07-12T05:01:28.958Z,56.30
2016-07-12T05:02:34.508Z,56.20
2016-07-12T05:03:24.136Z,56.20
2016-07-12T05:04:30.087Z,56.20
2016-07-12T05:05:29.519Z,56.20
2016-07-12T05:06:33.140Z,56.10
2016-07-12T05:07:28.958Z,56.10
2016-07-12T05:08:31.810Z,56.20
2016-07-12T05:09:31.561Z,56.10
2016-07-12T05:10:27.370Z,56.20
2016-07-12T05:11:21.245Z,56.20
2016-07-12T05:12:33.920Z,56.10
2016-07-12T05:13:27.701Z,56.20
2016-07-12T05:14:28.989Z,56.00
2016-07-12T05:15:32.659Z,56.20
2016-07-12T05:16:23.182Z,56.20
2016-07-12T05:17:33.202Z,56.20
2016-07-12T05:18:21.236Z,56.50
2016-07-12T05:19:35.199Z,56.60
2016-07-12T05:20:34.693Z,56.70
2016-07-12T05:21:11.407Z,is
2016-07-12T05:22:17.374Z,56.50
2016-07-12T05:23:18.840Z,56.60
2016-07-12T05:24:13.509Z,56.50
2016-07-12T05:25:12.869Z,56.50
2016-07-12T05:26:18.996Z,56.70
2016-07-12T05:27:11.502Z,56.80
2016-07-12T05:28:27.986Z,56.80
2016-07-12T05:29:20.427Z,56.80
2016-07-12T05:30:32.020Z,56.80
2016-07-12T05:31:36.220Z,56.70
2016-07-12T05:32:27.520Z,56.70
2016-07-12T05:33:20.486Z,56.90
2016-07-12T05:34:25.193Z,56.70
2016-07-12T05:35:28.587Z,56.50
2016-07-12T05:36:28.649Z,56.50
2016-07-12T05:37:17.203Z,is
2016-07-12T05:38:26.949Z,56.70
2016-07-12T05:39:26.854Z,56.70
2016-07-12T05:40:12.361Z,56.70
2016-07-12T05:41:29.547Z,56.80
2016-07-12T05:42:37.020Z,56.90
2016-07-12T05:43:22.437Z,56.70
2016-07-12T05:44:35.003Z,56.70
2016-07-12T05:45:19.706Z,56.80
2016-07-12T05:46:28.616Z,56.70
2016-07-12T05:47:32.939Z,56.50
2016-07-12T05:48:27.742Z,56.60
2016-07-12T05:49:22.311Z,56.60
2016-07-12T05:50:29.912Z,56.60
2016-07-12T05:51:30.020Z,56.70
2016-07-12T05:52:31.084Z,56.70
2016-07-12T05:53:24.857Z,56.60
2016-07-12T05:54:22.787Z,57.10
2016-07-12T05:55:24.521Z,57.50
2016-07-12T05:56:37.300Z,58.00
2016-07-12T05:57:31.541Z,58.20
2016-07-12T05:58:22.752Z,58.10
2016-07-12T05:59:13.347Z,57.90
2016-07-12T06:00:26.389Z,58.10
2016-07-12T06:01:23.040Z,58.70
2016-07-12T06:02:30.273Z,is
2016-07-12T06:03:24.263Z,59.10
2016-07-12T06:04:26.538Z,59.20
2016-07-12T06:05:30.932Z,58.80
2016-07-12T06:06:38.010Z,58.70
2016-07-12T06:07:33.293Z,58.60
2016-07-12T06:08:21.642Z,58.90
2016-07-12T06:09:27.139Z,59.10
2016-07-12T06:10:33.955Z,58.70
2016-07-12T06:11:29.840Z,58.70
2016-07-12T06:12:30.937Z,59.10
2016-07-12T06:13:31.506Z,58.90
2016-07-12T06:14:22.115Z,58.90
2016-07-12T06:15:36.468Z,58.90
2016-07-12T06:16:25.273Z,59.00
2016-07-12T06:17:22.873Z,59.00
2016-07-12T06:18:24.464Z,59.30
2016-07-12T06:19:36.716Z,59.50
2016-07-12T06:20:22.556Z,60.00
2016-07-12T06:21:29.274Z,59.40
2016-07-12T06:22:29.460Z,59.40
2016-07-12T06:23:17.403Z,59.40
2016-07-12T06:24:25.920Z,59.50
2016-07-12T06:25:30.169Z,59.80
2016-07-12T06:26:33.090Z,is
2016-07-12T06:27:17.276Z,59.80
2016-07-12T06:28:25.109Z,59.80
2016-07-12T06:29:28.333Z,59.70
2016-07-12T06:30:21.630Z,60.20
2016-07-12T06:31:20.202Z,59.90
2016-07-12T06:32:14.949Z,59.70
2016-07-12T06:33:16.556Z,59.00
2016-07-12T06:34:21.043Z,58.90
2016-07-12T06:35:20.217Z,58.90
2016-07-12T06:36:22.018Z,59.00
2016-07-12T06:37:38.239Z,59.30
2016-07-12T06:38:22.041Z,59.40
2016-07-12T06:39:23.309Z,59.20
2016-07-12T06:40:26.527Z,59.20
2016-07-12T06:41:37.771Z,59.40
2016-07-12T06:42:29.017Z,59.50
2016-07-12T06:43:43.302Z,59.90
2016-07-12T06:44:32.352Z,60.40
2016-07-12T06:45:32.039Z,59.90
2016-07-12T06:46:37.043Z,59.90
2016-07-12T06:47:31.584Z,59.80
2016-07-12T06:48:28.639Z,59.90
2016-07-12T06:49:29.127Z,59.80
2016-07-12T06:50:28.152Z,59.80
2016-07-12T06:51:29.311Z,59.80
2016-07-12T06:52:28.172Z,59.60
2016-07-12T06:53:26.909Z,59.30
2016-07-12T06:54:29.327Z,59.80
2016-07-12T06:55:35.089Z,59.90
2016-07-12T06:56:31.337Z,59.80
2016-07-12T06:57:29.359Z,59.80
2016-07-12T06:58:30.443Z,59.80
2016-07-12T06:59:28.317Z,60.20
2016-07-12T07:00:37.819Z,60.20
2016-07-12T07:01:28.703Z,60.20
2016-07-12T07:02:11.340Z,60.40
2016-07-12T07:03:27.933Z,60.40
2016-07-12T07:04:22.184Z,60.40
2016-07-12T07:05:26.703Z,60.20
2016-07-12T07:06:29.486Z,60.20
2016-07-12T07:07:31.416Z,60.50
2016-07-12T07:08:37.145Z,59.90
2016-07-12T07:09:41.962Z,59.70
2016-07-12T07:10:28.771Z,59.70
2016-07-12T07:11:29.183Z,59.70
2016-07-12T07:12:27.800Z,59.80
2016-07-12T07:13:30.255Z,59.70
2016-07-12T07:14:28.954Z,59.90
2016-07-12T07:15:24.418Z,60.50
2016-07-12T07:16:43.219Z,60.40
2016-07-12T07:17:37.974Z,60.70
2016-07-12T07:18:31.290Z,60.70
2016-07-12T07:19:37.570Z,60.70
2016-07-12T07:20:36.604Z,60.70
2016-07-12T07:21:43.022Z,60.30
2016-07-12T07:22:27.570Z,60.20
2016-07-12T07:23:36.770Z,60.30
2016-07-12T07:24:33.519Z,60.20
2016-07-12T07:25:32.798Z,60.50
2016-07-12T07:26:26.112Z,59.80
2016-07-12T07:27:33.456Z,59.70
2016-07-12T07:28:31.541Z,59.70
2016-07-12T07:29:31.386Z,60.60
2016-07-12T07:30:20.105Z,is
2016-07-12T07:31:41.765Z,60.20
2016-07-12T07:32:35.555Z,59.60
2016-07-12T07:33:37.849Z,59.70
2016-07-12T07:34:27.757Z,59.90
2016-07-12T07:35:32.411Z,60.40
2016-07-12T07:36:29.234Z,60.10
2016-07-12T07:37:29.915Z,60.50
2016-07-12T07:38:22.877Z,60.50
2016-07-12T07:39:22.886Z,60.50
2016-07-12T07:40:35.121Z,60.80
2016-07-12T07:41:26.195Z,61.10
2016-07-12T07:42:37.270Z,60.20
2016-07-12T07:43:28.724Z,59.60
2016-07-12T07:44:37.839Z,60.20
2016-07-12T07:45:29.086Z,59.90
2016-07-12T07:46:29.172Z,59.70
2016-07-12T07:47:13.246Z,59.60
2016-07-12T07:48:33.221Z,59.60
2016-07-12T07:49:43.648Z,59.60
2016-07-12T07:50:34.796Z,60.20
2016-07-12T07:51:15.712Z,60.40
2016-07-12T07:52:37.455Z,60.50
2016-07-12T07:53:36.590Z,60.70
2016-07-12T07:54:33.441Z,60.90
2016-07-12T07:55:22.981Z,61.00
2016-07-12T07:56:32.778Z,61.00
2016-07-12T07:57:23.175Z,62.60
2016-07-12T07:58:28.496Z,60.40
2016-07-12T07:59:26.410Z,60.60
2016-07-12T08:00:30.168Z,60.70
2016-07-12T08:01:25.795Z,60.30
2016-07-12T08:02:29.680Z,60.50
2016-07-12T08:03:29.210Z,60.40
2016-07-12T08:04:22.328Z,60.70
2016-07-12T08:05:31.250Z,is
2016-07-12T08:06:37.880Z,60.90
2016-07-12T08:07:32.490Z,61.20
2016-07-12T08:08:35.757Z,61.10
2016-07-12T08:09:27.047Z,61.30
2016-07-12T08:10:47.975Z,is
2016-07-12T08:11:22.888Z,61.70
2016-07-12T08:12:20.208Z,61.70
2016-07-12T08:13:25.951Z,61.60
2016-07-12T08:14:20.222Z,61.30
2016-07-12T08:15:29.497Z,61.70
2016-07-12T08:16:27.837Z,61.70
2016-07-12T08:17:37.634Z,61.60
2016-07-12T08:18:23.024Z,61.70
2016-07-12T08:19:27.520Z,61.70
2016-07-12T08:20:18.642Z,62.00
2016-07-12T08:21:25.897Z,61.70
2016-07-12T08:22:23.303Z,61.90
2016-07-12T08:23:24.820Z,61.60
2016-07-12T08:24:28.916Z,61.90
2016-07-12T08:25:25.912Z,61.60
2016-07-12T08:26:29.738Z,61.60
2016-07-12T08:27:26.508Z,61.50
2016-07-12T08:28:29.466Z,61.60
2016-07-12T08:29:32.653Z,61.40
2016-07-12T08:30:32.203Z,61.70
2016-07-12T08:31:28.625Z,61.40
2016-07-12T08:32:42.423Z,61.40
2016-07-12T08:33:24.988Z,61.40
2016-07-12T08:34:29.705Z,61.30
2016-07-12T08:35:27.234Z,61.30
2016-07-12T08:36:25.496Z,61.30
2016-07-12T08:37:31.588Z,61.20
2016-07-12T08:38:24.524Z,61.70
2016-07-12T08:39:27.922Z,61.60
2016-07-12T08:40:28.375Z,61.60
2016-07-12T08:41:31.045Z,61.70
2016-07-12T08:42:27.427Z,61.70
2016-07-12T08:43:41.530Z,is
2016-07-12T08:44:33.533Z,61.40
2016-07-12T08:45:22.407Z,61.60
2016-07-12T08:46:27.290Z,61.60
2016-07-12T08:47:32.379Z,61.70
2016-07-12T08:48:32.895Z,62.10
2016-07-12T08:49:28.668Z,62.30
2016-07-12T08:50:32.127Z,62.30
2016-07-12T08:51:22.843Z,62.20
2016-07-12T08:52:20.796Z,62.40
2016-07-12T08:53:29.841Z,62.30
2016-07-12T08:54:11.730Z,62.20
2016-07-12T08:55:22.567Z,62.00
2016-07-12T08:56:26.533Z,is
2016-07-12T08:57:31.136Z,62.20
2016-07-12T08:58:27.916Z,62.30
2016-07-12T08:59:31.813Z,62.00
2016-07-12T09:00:32.452Z,61.80
2016-07-12T09:01:25.192Z,62.00
2016-07-12T09:02:29.884Z,62.20
2016-07-12T09:03:28.239Z,62.20
2016-07-12T09:04:30.453Z,62.30
2016-07-12T09:05:24.808Z,62.50
2016-07-12T09:06:14.548Z,62.10
2016-07-12T09:07:24.559Z,61.60
2016-07-12T09:08:31.826Z,61.50
2016-07-12T09:09:35.519Z,61.70
2016-07-12T09:10:24.331Z,61.50
2016-07-12T09:11:24.957Z,61.50
2016-07-12T09:12:49.688Z,62.00
2016-07-12T09:13:25.400Z,62.00
2016-07-12T09:14:27.086Z,61.70
2016-07-12T09:15:21.830Z,is
2016-07-12T09:16:18.492Z,61.70
2016-07-12T09:17:10.268Z,is
2016-07-12T09:18:10.974Z,is
2016-07-12T09:19:09.275Z,is
2016-07-12T09:20:26.855Z,60.20
2016-07-12T09:21:19.393Z,60.10
2016-07-12T09:22:14.964Z,60.10
2016-07-12T09:23:22.804Z,59.90
2016-07-12T09:24:26.808Z,59.80
2016-07-12T09:25:20.562Z,60.00
2016-07-12T09:26:11.797Z,is
2016-07-12T09:27:26.845Z,59.90
2016-07-12T09:28:27.569Z,60.00
2016-07-12T09:29:27.238Z,59.90
2016-07-12T09:30:28.004Z,59.90
2016-07-12T09:31:17.067Z,60.10
2016-07-12T09:32:25.588Z,60.50
2016-07-12T09:33:13.502Z,60.90
2016-07-12T09:34:33.170Z,60.80
2016-07-12T09:35:23.934Z,60.80
2016-07-12T09:36:20.571Z,is
2016-07-12T09:37:27.371Z,60.90
2016-07-12T09:38:27.194Z,61.40
2016-07-12T09:39:27.363Z,61.60
2016-07-12T09:40:27.661Z,61.70
2016-07-12T09:41:30.285Z,61.30
2016-07-12T09:42:28.682Z,61.20
2016-07-12T09:43:24.115Z,60.70
2016-07-12T09:44:28.531Z,61.00
2016-07-12T09:45:22.471Z,61.50
2016-07-12T09:46:28.241Z,61.50
2016-07-12T09:47:27.216Z,is
2016-07-12T09:48:27.371Z,is
2016-07-12T09:49:27.588Z,61.40
2016-07-12T09:50:18.534Z,61.80
2016-07-12T09:51:27.616Z,61.80
2016-07-12T09:52:34.717Z,62.30
2016-07-12T09:53:27.923Z,62.70
2016-07-12T09:54:27.928Z,62.00
2016-07-12T09:55:22.478Z,61.80
2016-07-12T09:56:28.447Z,61.60
2016-07-12T09:57:27.413Z,60.90
2016-07-12T09:58:28.751Z,60.70
2016-07-12T09:59:36.292Z,60.80
2016-07-12T10:00:26.580Z,60.70
2016-07-12T10:01:27.170Z,61.70
2016-07-12T10:02:27.189Z,62.30
2016-07-12T10:03:18.120Z,62.10
2016-07-12T10:04:29.156Z,62.10
2016-07-12T10:05:27.961Z,62.10
2016-07-12T10:06:27.991Z,62.20
2016-07-12T10:07:28.532Z,62.20
2016-07-12T10:08:29.508Z,62.20
2016-07-12T10:09:28.777Z,62.00
2016-07-12T10:10:21.684Z,61.80
2016-07-12T10:11:26.823Z,61.30
2016-07-12T10:12:20.824Z,61.00
2016-07-12T10:13:16.629Z,is
2016-07-12T10:14:27.601Z,60.50
2016-07-12T10:15:28.518Z,60.00
2016-07-12T10:16:27.886Z,60.00
2016-07-12T10:17:28.892Z,59.90
2016-07-12T10:18:25.911Z,60.00
2016-07-12T10:19:29.194Z,59.90
2016-07-12T10:20:25.042Z,59.90
2016-07-12T10:21:26.988Z,59.90
2016-07-12T10:22:27.707Z,59.90
2016-07-12T10:23:27.723Z,59.50
2016-07-12T10:24:27.378Z,59.30
2016-07-12T10:25:28.504Z,59.40
2016-07-12T10:26:22.861Z,59.80
2016-07-12T10:27:28.560Z,59.90
2016-07-12T10:28:23.166Z,59.90
2016-07-12T10:29:23.093Z,59.90
2016-07-12T10:30:28.554Z,60.10
2016-07-12T10:31:27.044Z,60.00
2016-07-12T10:32:27.044Z,60.00
2016-07-12T10:33:26.748Z,58.50
2016-07-12T10:35:15.164Z,59.20
2016-07-12T10:35:31.233Z,58.60
2016-07-12T10:36:25.788Z,58.90
2016-07-12T10:37:28.537Z,58.90
2016-07-12T10:38:22.343Z,59.20
2016-07-12T10:39:22.565Z,59.40
2016-07-12T10:40:29.712Z,59.50
2016-07-12T10:41:28.894Z,60.00
2016-07-12T10:42:28.374Z,60.00
2016-07-12T10:43:28.651Z,60.10
2016-07-12T10:44:34.069Z,60.10
2016-07-12T10:45:10.208Z,is
2016-07-12T10:46:16.500Z,59.20
2016-07-12T10:47:20.791Z,59.00
2016-07-12T10:48:21.256Z,59.10
2016-07-12T10:49:21.662Z,59.50
2016-07-12T10:50:15.555Z,59.40
2016-07-12T10:51:16.853Z,is
2016-07-12T10:52:22.136Z,is
2016-07-12T10:53:17.665Z,59.10
2016-07-12T10:54:17.998Z,59.60
2016-07-12T10:55:19.742Z,59.70
2016-07-12T10:56:19.145Z,60.20
2016-07-12T10:57:19.551Z,59.20
2016-07-12T10:58:17.552Z,60.20
2016-07-12T10:59:25.788Z,60.20
2016-07-12T11:00:15.607Z,60.10
2016-07-12T11:01:23.575Z,60.20
2016-07-12T11:02:19.677Z,60.10
2016-07-12T11:03:20.211Z,60.00
2016-07-12T11:04:19.705Z,59.70
2016-07-12T11:05:27.860Z,59.70
2016-07-12T11:06:13.942Z,is
2016-07-12T11:07:20.760Z,59.10
2016-07-12T11:08:16.459Z,58.70
2016-07-12T11:09:20.050Z,58.90
2016-07-12T11:10:16.289Z,is
2016-07-12T11:11:12.488Z,58.60
2016-07-12T11:12:15.977Z,58.40
2016-07-12T11:13:12.429Z,58.20
2016-07-12T11:14:14.453Z,58.20
2016-07-12T11:15:13.642Z,58.10
2016-07-12T11:16:16.335Z,58.00
2016-07-12T11:17:18.879Z,57.90
2016-07-12T11:18:20.320Z,57.90
2016-07-12T11:19:21.281Z,57.90
2016-07-12T11:20:20.456Z,57.70
2016-07-12T11:21:22.390Z,57.70
2016-07-12T11:22:16.409Z,57.60
2016-07-12T11:23:13.732Z,57.90
2016-07-12T11:24:15.858Z,57.60
2016-07-12T11:25:15.149Z,57.60
2016-07-12T11:26:13.928Z,57.60
2016-07-12T11:27:13.424Z,57.60
2016-07-12T11:28:19.781Z,57.50
2016-07-12T11:29:17.096Z,is
2016-07-12T11:30:18.771Z,57.50
2016-07-12T11:31:17.140Z,57.40
2016-07-12T11:32:15.303Z,57.40
2016-07-12T11:33:23.119Z,57.30
2016-07-12T11:34:22.168Z,57.40
2016-07-12T11:35:13.828Z,57.40
2016-07-12T11:36:13.074Z,57.30
2016-07-12T11:37:15.237Z,57.30
2016-07-12T11:38:20.128Z,57.30
2016-07-12T11:39:17.048Z,57.50
2016-07-12T11:40:18.946Z,57.60
2016-07-12T11:41:13.221Z,57.10
2016-07-12T11:42:14.148Z,57.60
2016-07-12T11:43:15.181Z,57.30
2016-07-12T11:44:15.532Z,56.70
2016-07-12T11:45:15.916Z,57.30
2016-07-12T11:46:13.339Z,57.20
2016-07-12T11:47:20.690Z,57.10
2016-07-12T11:48:19.724Z,57.10
2016-07-12T11:49:22.914Z,57.10
2016-07-12T11:50:19.235Z,57.30
2016-07-12T11:51:13.375Z,57.20
2016-07-12T11:52:13.954Z,57.40
2016-07-12T11:53:20.681Z,57.50
2016-07-12T11:54:16.696Z,57.40
2016-07-12T11:55:13.050Z,is
2016-07-12T11:56:17.747Z,57.20
2016-07-12T11:57:19.880Z,57.00
2016-07-12T11:58:16.176Z,56.90
2016-07-12T11:59:22.507Z,56.90
2016-07-12T12:00:15.817Z,56.70
2016-07-12T12:01:18.590Z,56.80
2016-07-12T12:02:16.838Z,57.10
2016-07-12T12:03:12.256Z,is
2016-07-12T12:04:13.803Z,57.20
2016-07-12T12:05:12.577Z,56.90
2016-07-12T12:06:13.402Z,56.70
2016-07-12T12:07:13.719Z,57.00
2016-07-12T12:08:15.073Z,57.20
2016-07-12T12:09:22.338Z,57.40
2016-07-12T12:10:15.353Z,57.30
2016-07-12T12:11:16.465Z,56.90
2016-07-12T12:12:16.302Z,56.70
2016-07-12T12:13:20.382Z,56.80
2016-07-12T12:14:14.897Z,56.80
2016-07-12T12:15:17.160Z,57.20
2016-07-12T12:16:13.618Z,57.10
2016-07-12T12:17:20.662Z,57.10
2016-07-12T12:18:12.782Z,57.00
2016-07-12T12:19:18.926Z,56.70
2016-07-12T12:20:13.713Z,56.90
2016-07-12T12:21:15.450Z,56.90
2016-07-12T12:22:16.831Z,56.70
2016-07-12T12:23:16.671Z,56.70
2016-07-12T12:24:15.175Z,56.90
2016-07-12T12:25:13.089Z,56.60
2016-07-12T12:26:14.575Z,56.70
2016-07-12T12:27:13.113Z,56.80
2016-07-12T12:28:16.230Z,56.50
2016-07-12T12:29:14.525Z,56.60
2016-07-12T12:30:17.011Z,56.60
2016-07-12T12:31:14.332Z,56.60
2016-07-12T12:32:12.197Z,56.90
2016-07-12T12:33:16.794Z,56.90
2016-07-12T12:34:18.833Z,57.20
2016-07-12T12:35:15.666Z,57.10
2016-07-12T12:36:13.528Z,57.20
2016-07-12T12:37:13.529Z,56.70
2016-07-12T12:38:13.762Z,56.90
2016-07-12T12:39:17.360Z,56.70
2016-07-12T12:40:14.168Z,56.60
2016-07-12T12:41:21.963Z,56.70
2016-07-12T12:42:15.527Z,56.50
2016-07-12T12:43:14.785Z,56.60
2016-07-12T12:44:14.719Z,56.50
2016-07-12T12:45:20.674Z,is
2016-07-12T12:46:17.694Z,56.70
2016-07-12T12:47:17.188Z,56.60
2016-07-12T12:48:15.045Z,56.60
2016-07-12T12:49:15.472Z,56.50
2016-07-12T12:50:13.220Z,56.50
2016-07-12T12:51:19.165Z,56.60
2016-07-12T12:52:15.176Z,56.30
2016-07-12T12:53:19.391Z,56.40
2016-07-12T12:54:19.349Z,56.40
2016-07-12T12:55:21.240Z,56.50
2016-07-12T12:56:20.651Z,is
2016-07-12T12:57:20.422Z,56.40
2016-07-12T12:58:13.268Z,56.30
2016-07-12T12:59:15.149Z,56.40
2016-07-12T13:00:14.461Z,56.40
2016-07-12T13:01:12.703Z,56.40
2016-07-12T13:02:12.855Z,56.30
2016-07-12T13:03:14.030Z,56.20
2016-07-12T13:04:16.105Z,56.40
2016-07-12T13:05:17.422Z,56.20
2016-07-12T13:06:21.118Z,56.30
2016-07-12T13:07:10.355Z,is
2016-07-12T13:08:19.494Z,56.20
2016-07-12T13:09:19.139Z,56.30
2016-07-12T13:10:25.448Z,56.20
2016-07-12T13:11:12.861Z,56.30
2016-07-12T13:12:21.004Z,56.20
2016-07-12T13:13:16.180Z,56.30
2016-07-12T13:14:14.037Z,56.10
2016-07-12T13:15:18.871Z,56.20
2016-07-12T13:16:16.054Z,56.30
2016-07-12T13:17:16.667Z,56.30
2016-07-12T13:18:18.924Z,56.20
2016-07-12T13:19:17.260Z,56.20
2016-07-12T13:20:20.617Z,56.10